createdAt,value
2018-10-03T00:01:59.628Z,98.30
2018-10-03T00:04:01.816Z,98.30
2018-10-03T00:06:04.013Z,98.30
2018-10-03T00:08:06.211Z,98.30
2018-10-03T00:10:08.580Z,98.30
2018-10-03T00:12:10.743Z,98.30
2018-10-03T00:14:12.923Z,98.30
2018-10-03T00:16:15.094Z,98.30
2018-10-03T00:18:17.243Z,98.30
2018-10-03T00:20:19.436Z,98.30
2018-10-03T00:22:21.622Z,98.30
2018-10-03T00:24:23.787Z,98.30
2018-10-03T00:26:25.920Z,98.30
2018-10-03T00:28:28.078Z,98.30
2018-10-03T00:30:30.298Z,98.30
2018-10-03T00:32:32.457Z,98.30
2018-10-03T00:34:34.625Z,98.30
2018-10-03T00:36:36.878Z,98.30
2018-10-03T00:38:39.008Z,98.30
2018-10-03T00:40:41.195Z,98.30
2018-10-03T00:42:43.350Z,98.30
2018-10-03T00:44:45.498Z,98.30
2018-10-03T00:46:47.610Z,98.30
2018-10-03T00:48:50.092Z,98.30
2018-10-03T00:50:52.242Z,98.30
2018-10-03T00:52:54.375Z,98.30
2018-10-03T00:54:56.593Z,98.30
2018-10-03T00:56:58.751Z,98.30
2018-10-03T00:59:00.916Z,98.30
2018-10-03T01:01:03.105Z,98.30
2018-10-03T01:03:05.390Z,98.30
2018-10-03T01:05:07.543Z,98.30
2018-10-03T01:07:09.955Z,98.30
2018-10-03T01:09:12.165Z,98.30
2018-10-03T01:11:14.362Z,98.30
2018-10-03T01:13:16.541Z,98.30
2018-10-03T01:15:18.679Z,98.30
2018-10-03T01:17:20.815Z,98.30
2018-10-03T01:19:23.359Z,98.30
2018-10-03T01:21:25.497Z,98.30
2018-10-03T01:23:27.680Z,98.30
2018-10-03T01:25:29.895Z,98.30
2018-10-03T01:27:32.010Z,98.30
2018-10-03T01:29:34.133Z,98.30
2018-10-03T01:31:36.284Z,98.30
2018-10-03T01:33:38.418Z,98.30
2018-10-03T01:35:40.736Z,98.30
2018-10-03T01:37:42.897Z,98.30
2018-10-03T01:39:45.019Z,98.30
2018-10-03T01:41:47.450Z,98.30
2018-10-03T01:43:49.618Z,98.30
2018-10-03T01:45:51.894Z,98.30
2018-10-03T01:47:54.050Z,98.30
2018-10-03T01:49:56.176Z,98.30
2018-10-03T01:51:58.322Z,98.30
2018-10-03T01:54:00.482Z,98.30
2018-10-03T01:56:02.655Z,98.30
2018-10-03T01:58:04.898Z,98.30
2018-10-03T02:00:07.065Z,98.30
2018-10-03T02:02:09.225Z,98.30
2018-10-03T02:04:11.768Z,98.30
2018-10-03T02:06:14.013Z,98.30
2018-10-03T02:08:16.145Z,98.00
2018-10-03T02:10:18.398Z,97.90
2018-10-03T02:12:20.549Z,97.50
2018-10-03T02:14:22.698Z,97.50
2018-10-03T02:16:24.996Z,96.90
2018-10-03T02:18:27.133Z,96.60
2018-10-03T02:20:29.313Z,98.30
2018-10-03T02:22:31.490Z,98.30
2018-10-03T02:24:33.644Z,98.30
2018-10-03T02:26:35.766Z,98.30
2018-10-03T02:28:38.335Z,98.30
2018-10-03T02:30:40.474Z,98.30
2018-10-03T02:32:42.630Z,98.30
2018-10-03T02:34:44.763Z,98.30
2018-10-03T02:36:46.936Z,98.30
2018-10-03T02:38:49.102Z,98.30
2018-10-03T02:40:51.284Z,98.30
2018-10-03T02:42:53.674Z,98.30
2018-10-03T02:44:55.825Z,98.30
2018-10-03T02:46:57.996Z,98.30
2018-10-03T02:49:01.030Z,98.30
2018-10-03T02:51:03.194Z,98.30
2018-10-03T02:53:05.474Z,98.30
2018-10-03T02:55:07.894Z,98.30
2018-10-03T02:57:10.074Z,98.30
2018-10-03T02:59:12.236Z,98.30
2018-10-03T03:01:14.909Z,98.30
2018-10-03T03:03:17.040Z,98.30
2018-10-03T03:05:19.174Z,98.30
2018-10-03T03:07:21.592Z,98.30
2018-10-03T03:09:23.746Z,98.30
2018-10-03T03:11:25.952Z,98.30
2018-10-03T03:13:28.087Z,98.30
2018-10-03T03:15:30.308Z,98.30
2018-10-03T03:17:32.458Z,98.30
2018-10-03T03:19:34.767Z,98.30
2018-10-03T03:21:37.013Z,98.30
2018-10-03T03:23:39.170Z,98.30
2018-10-03T03:25:41.669Z,98.30
2018-10-03T03:27:43.817Z,98.30
2018-10-03T03:29:45.964Z,98.30
2018-10-03T03:31:48.361Z,98.30
2018-10-03T03:33:50.553Z,98.30
2018-10-03T03:35:52.677Z,98.30
2018-10-03T03:37:54.894Z,98.30
2018-10-03T03:39:57.053Z,98.30
2018-10-03T03:41:59.188Z,98.30
2018-10-03T03:44:01.351Z,98.30
2018-10-03T03:46:03.505Z,98.30
2018-10-03T03:48:05.672Z,98.30
2018-10-03T03:50:08.143Z,98.30
2018-10-03T03:52:10.277Z,98.30
2018-10-03T03:54:12.424Z,98.30
2018-10-03T03:56:14.838Z,98.30
2018-10-03T03:58:17.036Z,98.30
2018-10-03T04:00:19.211Z,98.30
2018-10-03T04:02:21.407Z,98.30
2018-10-03T04:04:23.588Z,98.30
2018-10-03T04:06:27.219Z,98.30
2018-10-03T04:21:43.384Z,98.30
2018-10-03T04:23:45.674Z,98.30
2018-10-03T04:25:48.002Z,98.30
2018-10-03T04:27:50.523Z,98.30
2018-10-03T04:29:52.808Z,98.30
2018-10-03T04:31:55.044Z,98.30
2018-10-03T04:33:57.320Z,98.30
2018-10-03T04:35:59.548Z,98.30
2018-10-03T04:38:01.856Z,98.30
2018-10-03T04:40:04.123Z,98.30
2018-10-03T04:42:06.753Z,98.30
2018-10-03T04:44:08.990Z,98.30
2018-10-03T04:46:11.164Z,98.30
2018-10-03T04:48:13.333Z,98.30
2018-10-03T04:50:15.492Z,98.30
2018-10-03T04:52:17.734Z,98.30
2018-10-03T04:54:19.931Z,98.30
2018-10-03T04:56:22.162Z,98.30
2018-10-03T04:58:24.290Z,98.30
2018-10-03T05:04:06.503Z,98.30
2018-10-03T05:06:08.898Z,98.30
2018-10-03T05:08:11.359Z,98.30
2018-10-03T05:10:14.239Z,98.30
2018-10-03T05:12:16.545Z,98.30
2018-10-03T05:14:18.799Z,98.30
2018-10-03T05:16:21.307Z,98.30
2018-10-03T05:18:23.849Z,98.30
2018-10-03T05:20:26.061Z,98.30
2018-10-03T05:22:29.009Z,98.30
2018-10-03T05:24:31.481Z,98.30
2018-10-03T05:26:35.346Z,98.30
2018-10-03T05:28:37.551Z,98.30
2018-10-03T05:30:39.723Z,98.30
2018-10-03T05:32:41.907Z,98.30
2018-10-03T05:34:44.062Z,98.30
2018-10-03T05:36:47.208Z,98.30
2018-10-03T05:38:49.448Z,98.30
2018-10-03T05:40:51.711Z,98.30
2018-10-03T05:42:53.912Z,98.30
2018-10-03T05:44:56.198Z,98.30
2018-10-03T05:46:58.450Z,98.30
2018-10-03T05:49:00.653Z,98.30
2018-10-03T05:51:03.453Z,98.30
2018-10-03T05:53:07.227Z,98.30
2018-10-03T05:55:09.452Z,98.30
2018-10-03T05:57:11.876Z,98.30
2018-10-03T05:59:14.083Z,98.30
2018-10-03T06:01:16.263Z,98.30
2018-10-03T06:03:18.459Z,98.30
2018-10-03T06:05:20.642Z,98.30
2018-10-03T06:07:22.822Z,98.30
2018-10-03T06:09:25.037Z,98.30
2018-10-03T06:11:28.003Z,98.30
2018-10-03T06:13:30.182Z,98.30
2018-10-03T06:15:32.424Z,98.30
2018-10-03T06:17:34.658Z,98.30
2018-10-03T06:19:36.839Z,98.30
2018-10-03T06:21:39.088Z,98.30
2018-10-03T06:23:41.285Z,98.30
2018-10-03T06:25:43.448Z,98.30
2018-10-03T06:27:45.723Z,98.30
2018-10-03T06:29:48.026Z,98.30
2018-10-03T06:31:50.195Z,98.30
2018-10-03T06:33:52.511Z,98.30
2018-10-03T06:35:55.043Z,98.30
2018-10-03T06:37:57.243Z,98.30
2018-10-03T06:39:59.488Z,98.30
2018-10-03T06:42:01.811Z,98.30
2018-10-03T06:44:04.006Z,98.30
2018-10-03T06:46:06.208Z,98.30
2018-10-03T06:48:08.542Z,98.30
2018-10-03T06:50:10.731Z,98.30
2018-10-03T06:52:13.084Z,98.30
2018-10-03T06:54:15.346Z,98.30
2018-10-03T06:56:17.552Z,98.30
2018-10-03T06:58:19.752Z,98.30
2018-10-03T07:00:21.943Z,98.30
2018-10-03T07:02:24.403Z,98.30
2018-10-03T07:04:26.605Z,98.30
2018-10-03T07:06:28.789Z,98.30
2018-10-03T07:08:31.372Z,98.30
2018-10-03T07:10:33.566Z,98.30
2018-10-03T07:12:35.742Z,98.30
2018-10-03T07:14:38.075Z,98.30
2018-10-03T07:16:40.282Z,98.30
2018-10-03T07:18:42.502Z,98.30
2018-10-03T07:20:44.707Z,98.30
2018-10-03T07:22:46.906Z,98.30
2018-10-03T07:24:49.106Z,98.10
2018-10-03T07:26:56.848Z,97.70
2018-10-03T07:29:00.676Z,96.00
2018-10-03T07:31:02.956Z,95.70
2018-10-03T07:33:05.263Z,95.40
2018-10-03T07:35:07.494Z,95.20
2018-10-03T07:37:09.757Z,94.50
2018-10-03T07:39:12.004Z,94.30
2018-10-03T07:41:14.171Z,93.30
2018-10-03T07:43:16.394Z,92.90
2018-10-03T07:45:18.611Z,92.80
2018-10-03T07:47:20.784Z,93.10
2018-10-03T07:49:23.017Z,92.70
2018-10-03T07:51:25.284Z,91.80
2018-10-03T07:53:27.490Z,91.80
2018-10-03T07:55:29.726Z,91.30
2018-10-03T07:57:32.042Z,90.80
2018-10-03T07:59:34.247Z,90.60
2018-10-03T08:01:36.613Z,91.20
2018-10-03T08:03:39.328Z,89.70
2018-10-03T08:05:41.486Z,88.70
2018-10-03T08:07:43.657Z,88.70
2018-10-03T08:09:46.245Z,88.80
2018-10-03T08:11:48.676Z,88.40
2018-10-03T08:13:50.855Z,88.30
2018-10-03T08:15:53.658Z,88.60
2018-10-03T08:17:56.060Z,88.60
2018-10-03T08:19:58.259Z,88.30
2018-10-03T08:22:00.740Z,87.50
2018-10-03T08:24:03.011Z,86.90
2018-10-03T08:26:05.211Z,87.30
2018-10-03T08:28:07.399Z,86.80
2018-10-03T08:30:09.588Z,86.60
2018-10-03T08:32:11.856Z,86.40
2018-10-03T08:34:14.052Z,87.20
2018-10-03T08:36:16.295Z,87.10
2018-10-03T08:38:18.492Z,85.90
2018-10-03T08:40:20.699Z,85.60
2018-10-03T08:42:22.959Z,85.50
2018-10-03T08:44:25.146Z,85.10
2018-10-03T08:46:27.339Z,85.30
2018-10-03T08:48:29.539Z,84.10
2018-10-03T08:50:31.777Z,83.50
2018-10-03T08:52:34.525Z,84.50
2018-10-03T08:54:36.691Z,85.10
2018-10-03T08:56:38.887Z,85.60
2018-10-03T08:58:41.503Z,85.70
2018-10-03T09:00:43.627Z,85.40
2018-10-03T09:02:45.811Z,83.10
2018-10-03T09:04:48.302Z,83.80
2018-10-03T09:06:50.496Z,84.10
2018-10-03T09:08:52.780Z,85.10
2018-10-03T09:10:55.559Z,84.40
2018-10-03T09:12:57.772Z,83.40
2018-10-03T09:15:00.066Z,82.20
2018-10-03T09:17:02.346Z,81.20
2018-10-03T09:19:04.519Z,80.40
2018-10-03T09:21:06.691Z,80.10
2018-10-03T09:23:08.874Z,80.60
2018-10-03T09:25:11.086Z,80.60
2018-10-03T09:27:13.370Z,82.10
2018-10-03T09:29:15.791Z,83.20
2018-10-03T09:31:18.027Z,84.30
2018-10-03T09:33:20.232Z,84.50
2018-10-03T09:35:22.506Z,84.90
2018-10-03T09:37:24.709Z,85.60
2018-10-03T09:39:26.937Z,85.80
2018-10-03T09:41:29.207Z,86.20
2018-10-03T09:43:31.387Z,86.40
2018-10-03T09:45:33.587Z,84.70
2018-10-03T09:47:35.772Z,83.10
2018-10-03T09:49:37.971Z,82.40
2018-10-03T09:51:40.187Z,83.20
2018-10-03T09:53:42.422Z,83.10
2018-10-03T09:55:49.665Z,81.20
2018-10-03T09:57:52.616Z,80.00
2018-10-03T09:59:54.883Z,79.80
2018-10-03T10:01:57.088Z,79.00
2018-10-03T10:04:00.559Z,77.90
2018-10-03T10:06:02.784Z,77.80
2018-10-03T10:08:05.037Z,77.10
2018-10-03T10:10:07.225Z,76.90
2018-10-03T10:12:09.430Z,76.40
2018-10-03T10:14:11.624Z,76.90
2018-10-03T10:16:13.811Z,76.70
2018-10-03T10:18:16.032Z,75.70
2018-10-03T10:20:18.231Z,76.00
2018-10-03T10:22:20.443Z,75.20
2018-10-03T10:24:23.039Z,74.50
2018-10-03T10:26:25.226Z,79.30
2018-10-03T10:28:27.465Z,79.80
2018-10-03T10:30:29.710Z,78.50
2018-10-03T10:32:32.013Z,77.30
2018-10-03T10:34:34.201Z,77.20
2018-10-03T10:36:36.698Z,77.00
2018-10-03T10:38:38.898Z,77.20
2018-10-03T10:40:41.214Z,77.10
2018-10-03T10:42:43.299Z,76.90
2018-10-03T10:44:45.466Z,76.60
2018-10-03T10:46:47.644Z,77.00
2018-10-03T10:48:49.807Z,76.10
2018-10-03T10:50:52.067Z,75.80
2018-10-03T10:52:54.262Z,77.60
2018-10-03T10:54:56.492Z,79.50
2018-10-03T10:56:58.730Z,81.50
2018-10-03T10:59:00.911Z,82.20
2018-10-03T11:01:03.122Z,82.70
2018-10-03T11:03:05.444Z,80.60
2018-10-03T11:05:07.643Z,80.10
2018-10-03T11:07:10.087Z,78.80
2018-10-03T11:09:12.259Z,77.70
2018-10-03T11:11:14.559Z,77.30
2018-10-03T11:13:16.982Z,76.60
2018-10-03T11:15:19.175Z,76.10
2018-10-03T11:17:21.355Z,75.30
2018-10-03T11:19:23.787Z,74.70
2018-10-03T11:21:25.946Z,74.40
2018-10-03T11:23:28.174Z,73.60
2018-10-03T11:25:30.420Z,72.80
2018-10-03T11:27:32.603Z,75.00
2018-10-03T11:29:34.842Z,75.20
2018-10-03T11:31:37.157Z,77.60
2018-10-03T11:33:39.359Z,79.20
2018-10-03T11:35:41.506Z,80.30
2018-10-03T11:37:43.835Z,81.80
2018-10-03T11:39:46.239Z,82.40
2018-10-03T11:41:48.590Z,82.90
2018-10-03T11:43:50.789Z,82.50
2018-10-03T11:45:52.884Z,80.20
2018-10-03T11:47:55.093Z,75.90
2018-10-03T11:50:05.086Z,73.10
2018-10-03T11:52:07.635Z,71.30
2018-10-03T11:54:10.059Z,70.00
2018-10-03T11:56:12.232Z,68.80
2018-10-03T11:58:14.543Z,68.10
2018-10-03T12:00:16.720Z,67.60
2018-10-03T12:02:18.949Z,67.90
2018-10-03T12:04:21.191Z,66.10
2018-10-03T12:06:23.382Z,67.30
2018-10-03T12:08:25.850Z,66.90
2018-10-03T12:10:28.014Z,69.10
2018-10-03T12:12:30.199Z,72.00
2018-10-03T12:14:32.443Z,74.10
2018-10-03T12:16:34.699Z,75.10
2018-10-03T12:18:36.819Z,75.70
2018-10-03T12:20:39.020Z,77.70
2018-10-03T12:22:41.354Z,78.90
2018-10-03T12:24:43.511Z,79.80
2018-10-03T12:26:45.697Z,82.20
2018-10-03T12:28:47.908Z,83.50
2018-10-03T12:30:50.094Z,83.50
2018-10-03T12:32:52.226Z,83.60
2018-10-03T12:34:54.816Z,80.90
2018-10-03T12:36:57.067Z,76.70
2018-10-03T12:38:59.635Z,75.30
2018-10-03T12:41:01.916Z,77.10
2018-10-03T12:43:04.297Z,78.50
2018-10-03T12:45:06.584Z,76.50
2018-10-03T12:47:08.735Z,73.40
2018-10-03T12:49:10.947Z,69.10
2018-10-03T12:51:13.137Z,67.30
2018-10-03T12:53:17.089Z,66.60
2018-10-03T12:55:19.423Z,66.30
2018-10-03T12:57:21.865Z,65.70
2018-10-03T12:59:24.067Z,64.90
2018-10-03T13:01:26.333Z,64.90
2018-10-03T13:03:28.469Z,63.20
2018-10-03T13:05:30.684Z,63.10
2018-10-03T13:07:32.895Z,62.70
2018-10-03T13:09:35.129Z,62.80
2018-10-03T13:11:37.346Z,64.90
2018-10-03T13:13:39.550Z,68.00
2018-10-03T13:15:41.746Z,69.50
2018-10-03T13:17:43.946Z,72.10
2018-10-03T13:19:46.166Z,75.40
2018-10-03T13:21:48.339Z,75.80
2018-10-03T13:23:50.595Z,76.80
2018-10-03T13:25:52.808Z,75.30
2018-10-03T13:27:55.107Z,70.70
2018-10-03T13:29:57.463Z,67.80
2018-10-03T13:31:59.649Z,66.70
2018-10-03T13:34:02.351Z,67.40
2018-10-03T13:36:04.571Z,68.00
2018-10-03T13:38:06.762Z,65.80
2018-10-03T13:40:09.151Z,65.30
2018-10-03T13:42:11.396Z,64.20
2018-10-03T13:44:13.613Z,64.40
2018-10-03T13:46:15.921Z,65.50
2018-10-03T13:48:18.135Z,67.00
2018-10-03T13:50:20.373Z,65.40
2018-10-03T13:52:22.953Z,65.00
2018-10-03T13:54:25.307Z,63.80
2018-10-03T13:56:27.488Z,64.70
2018-10-03T13:58:29.659Z,67.00
2018-10-03T14:00:31.844Z,67.20
2018-10-03T14:02:34.066Z,65.10
2018-10-03T14:04:36.274Z,65.10
2018-10-03T14:06:38.467Z,63.50
2018-10-03T14:08:40.646Z,63.40
2018-10-03T14:10:42.817Z,67.50
2018-10-03T14:12:44.939Z,70.30
2018-10-03T14:14:47.149Z,71.40
2018-10-03T14:16:49.359Z,71.50
2018-10-03T14:18:57.481Z,68.30
2018-10-03T14:20:59.726Z,66.40
2018-10-03T14:23:01.878Z,65.50
2018-10-03T14:25:04.486Z,64.00
2018-10-03T14:27:06.697Z,62.00
2018-10-03T14:29:09.021Z,61.80
2018-10-03T14:31:11.211Z,60.40
2018-10-03T14:33:13.485Z,60.90
2018-10-03T14:35:16.028Z,64.80
2018-10-03T14:37:18.213Z,64.20
2018-10-03T14:39:20.411Z,63.10
2018-10-03T14:41:22.561Z,65.20
2018-10-03T14:43:24.772Z,69.30
2018-10-03T14:45:26.922Z,70.40
2018-10-03T14:47:29.152Z,70.20
2018-10-03T14:49:31.322Z,69.80
2018-10-03T14:51:33.575Z,72.10
2018-10-03T14:53:35.718Z,73.20
2018-10-03T14:55:37.983Z,74.50
2018-10-03T14:57:40.292Z,75.70
2018-10-03T14:59:42.430Z,76.50
2018-10-03T15:01:44.757Z,76.30
2018-10-03T15:03:46.931Z,76.90
2018-10-03T15:05:49.140Z,74.00
2018-10-03T15:07:51.582Z,69.60
2018-10-03T15:09:53.705Z,67.30
2018-10-03T15:11:55.923Z,65.20
2018-10-03T15:13:58.510Z,63.20
2018-10-03T15:16:00.691Z,64.90
2018-10-03T15:18:02.895Z,65.10
2018-10-03T15:20:05.807Z,63.70
2018-10-03T15:22:07.942Z,63.50
2018-10-03T15:24:10.107Z,64.30
2018-10-03T15:26:12.774Z,63.60
2018-10-03T15:28:14.909Z,62.90
2018-10-03T15:30:17.214Z,63.70
2018-10-03T15:32:19.524Z,63.70
2018-10-03T15:34:21.711Z,64.60
2018-10-03T15:36:24.045Z,67.20
2018-10-03T15:38:26.266Z,71.00
2018-10-03T15:40:28.859Z,74.30
2018-10-03T15:42:31.033Z,75.30
2018-10-03T15:44:33.271Z,76.80
2018-10-03T15:46:35.512Z,78.70
2018-10-03T15:48:37.698Z,79.60
2018-10-03T15:50:39.998Z,80.90
2018-10-03T15:52:42.443Z,81.30
2018-10-03T15:54:44.582Z,81.60
2018-10-03T15:56:46.940Z,82.40
2018-10-03T15:58:49.211Z,82.90
2018-10-03T16:00:51.424Z,83.90
2018-10-03T16:02:53.598Z,84.90
2018-10-03T16:04:56.130Z,85.40
2018-10-03T16:06:58.340Z,86.30
2018-10-03T16:09:00.531Z,86.40
2018-10-03T16:11:02.855Z,86.90
2018-10-03T16:13:05.690Z,86.90
2018-10-03T16:15:07.854Z,87.10
2018-10-03T16:17:10.466Z,87.20
2018-10-03T16:19:12.616Z,87.20
2018-10-03T16:21:14.822Z,87.20
2018-10-03T16:23:16.986Z,87.40
2018-10-03T16:25:19.246Z,87.40
2018-10-03T16:27:21.386Z,87.30
2018-10-03T16:29:24.107Z,87.30
2018-10-03T16:31:26.353Z,87.20
2018-10-03T16:33:28.502Z,87.50
2018-10-03T16:35:30.681Z,87.40
2018-10-03T16:37:32.852Z,87.30
2018-10-03T16:39:34.998Z,87.40
2018-10-03T16:41:37.240Z,87.70
2018-10-03T16:43:39.395Z,87.50
2018-10-03T16:45:41.563Z,87.70
2018-10-03T16:47:43.786Z,87.50
2018-10-03T16:49:45.994Z,87.50
2018-10-03T16:51:48.115Z,87.40
2018-10-03T16:53:50.311Z,87.70
2018-10-03T16:55:52.471Z,87.70
2018-10-03T16:57:54.622Z,87.70
2018-10-03T16:59:57.218Z,87.70
2018-10-03T17:01:59.391Z,87.40
2018-10-03T17:04:01.528Z,87.60
2018-10-03T17:06:04.107Z,87.70
2018-10-03T17:08:06.431Z,87.60
2018-10-03T17:10:08.611Z,87.70
2018-10-03T17:12:10.850Z,87.90
2018-10-03T17:14:20.351Z,87.90
2018-10-03T17:16:22.582Z,87.90
2018-10-03T17:18:25.401Z,88.00
2018-10-03T17:20:27.555Z,87.90
2018-10-03T17:22:29.847Z,87.90
2018-10-03T17:24:33.414Z,88.00
2018-10-03T17:26:35.911Z,88.40
2018-10-03T17:28:38.264Z,88.50
2018-10-03T17:30:40.743Z,88.70
2018-10-03T17:32:42.882Z,88.60
2018-10-03T17:34:45.029Z,88.80
2018-10-03T17:36:48.516Z,88.30
2018-10-03T17:38:50.981Z,88.80
2018-10-03T17:40:53.234Z,88.90
2018-10-03T17:42:55.443Z,88.60
2018-10-03T17:44:57.902Z,88.90
2018-10-03T17:47:00.311Z,88.60
2018-10-03T17:49:02.611Z,88.60
2018-10-03T17:51:04.690Z,88.30
2018-10-03T17:53:07.075Z,88.30
2018-10-03T17:55:09.317Z,88.70
2018-10-03T17:57:11.838Z,88.50
2018-10-03T17:59:14.074Z,88.40
2018-10-03T18:01:16.407Z,88.50
2018-10-03T18:03:18.598Z,88.50
2018-10-03T18:05:20.744Z,88.30
2018-10-03T18:07:22.933Z,89.00
2018-10-03T18:09:25.630Z,89.40
2018-10-03T18:11:27.836Z,90.20
2018-10-03T18:13:30.087Z,90.20
2018-10-03T18:15:32.711Z,90.40
2018-10-03T18:17:34.915Z,90.70
2018-10-03T18:19:37.087Z,90.20
2018-10-03T18:21:39.276Z,89.70
2018-10-03T18:23:41.716Z,90.20
2018-10-03T18:25:43.920Z,90.80
2018-10-03T18:27:46.144Z,91.50
2018-10-03T18:29:48.246Z,92.70
2018-10-03T18:31:50.513Z,93.20
2018-10-03T18:33:52.987Z,93.70
2018-10-03T18:35:55.222Z,94.10
2018-10-03T18:37:57.501Z,94.40
2018-10-03T18:39:59.664Z,94.60
2018-10-03T18:42:01.851Z,95.00
2018-10-03T18:44:04.027Z,95.00
2018-10-03T18:46:06.243Z,95.00
2018-10-03T18:48:08.498Z,95.30
2018-10-03T18:50:10.933Z,95.40
2018-10-03T18:52:18.024Z,95.60
2018-10-03T18:54:20.322Z,95.60
2018-10-03T18:56:22.587Z,95.90
2018-10-03T18:58:24.896Z,96.10
2018-10-03T19:00:27.987Z,96.40
2018-10-03T19:02:30.259Z,96.40
2018-10-03T19:04:32.500Z,96.20
2018-10-03T19:06:34.873Z,96.50
2018-10-03T19:08:37.096Z,96.50
2018-10-03T19:10:39.438Z,95.80
2018-10-03T19:12:42.057Z,95.50
2018-10-03T19:14:44.232Z,94.90
2018-10-03T19:16:46.464Z,95.00
2018-10-03T19:20:59.021Z,96.30
2018-10-03T19:23:02.123Z,97.00
2018-10-03T19:25:04.851Z,96.80
2018-10-03T19:27:09.259Z,97.60
2018-10-03T19:29:11.584Z,97.40
2018-10-03T19:31:13.796Z,97.80
2018-10-03T19:33:19.079Z,98.30
2018-10-03T19:35:21.499Z,98.30
2018-10-03T19:37:23.726Z,98.30
2018-10-03T19:39:25.977Z,98.30
2018-10-03T19:41:28.566Z,98.30
2018-10-03T19:43:30.840Z,98.30
2018-10-03T19:45:33.124Z,98.30
2018-10-03T19:47:35.832Z,98.30
2018-10-03T19:49:39.013Z,98.30
2018-10-03T19:51:41.240Z,98.30
2018-10-03T19:53:43.850Z,98.30
2018-10-03T19:55:46.122Z,98.30
2018-10-03T19:57:48.322Z,98.30
2018-10-03T19:59:51.107Z,98.30
2018-10-03T20:01:53.468Z,98.30
2018-10-03T20:03:55.775Z,98.30
2018-10-03T20:05:58.189Z,98.30
2018-10-03T20:08:00.366Z,98.30
2018-10-03T20:10:05.406Z,98.30
2018-10-03T20:12:07.737Z,98.30
2018-10-03T20:14:09.948Z,98.30
2018-10-03T20:16:12.203Z,98.30
2018-10-03T20:18:14.794Z,98.30
2018-10-03T20:20:18.907Z,98.30
2018-10-03T20:22:22.243Z,98.30
2018-10-03T20:24:24.455Z,98.30
2018-10-03T20:26:26.737Z,98.30
2018-10-03T20:28:29.007Z,98.30
2018-10-03T20:30:31.309Z,98.30
2018-10-03T20:32:33.580Z,98.30
2018-10-03T20:34:36.048Z,98.30
2018-10-03T20:36:38.621Z,98.30
2018-10-03T20:38:40.980Z,98.30
2018-10-03T20:40:43.241Z,98.30
2018-10-03T20:42:45.581Z,98.30
2018-10-03T20:44:48.773Z,98.30
2018-10-03T20:46:51.090Z,98.30
2018-10-03T20:48:53.313Z,98.30
2018-10-03T20:50:55.985Z,98.30
2018-10-03T20:52:59.003Z,98.30
2018-10-03T20:55:01.270Z,98.30
2018-10-03T20:57:03.802Z,98.30
2018-10-03T20:59:06.181Z,98.30
2018-10-03T21:01:08.514Z,98.30
2018-10-03T21:03:10.810Z,98.30
2018-10-03T21:05:13.034Z,98.30
2018-10-03T21:07:15.304Z,98.30
2018-10-03T21:09:17.736Z,98.30
2018-10-03T21:11:20.064Z,98.30
2018-10-03T21:13:22.603Z,98.30
2018-10-03T21:15:24.904Z,98.30
2018-10-03T21:17:51.548Z,98.30
2018-10-03T21:20:17.937Z,98.30
2018-10-03T21:22:20.909Z,98.30
2018-10-03T21:24:23.170Z,98.30
2018-10-03T21:26:25.400Z,98.30
2018-10-03T21:28:27.573Z,98.30
2018-10-03T21:30:29.711Z,98.30
2018-10-03T21:32:32.536Z,98.30
2018-10-03T21:34:34.654Z,98.30
2018-10-03T21:36:36.840Z,98.30
2018-10-03T21:38:39.142Z,98.30
2018-10-03T21:40:41.349Z,98.30
2018-10-03T21:42:43.556Z,98.30
2018-10-03T21:44:45.814Z,98.30
2018-10-03T21:46:48.051Z,98.30
2018-10-03T21:48:50.223Z,98.30
2018-10-03T21:50:52.739Z,98.30
2018-10-03T21:52:54.943Z,98.30
2018-10-03T21:54:57.107Z,98.30
2018-10-03T21:56:59.319Z,98.30
2018-10-03T21:59:02.383Z,98.30
2018-10-03T22:01:04.599Z,98.30
2018-10-03T22:03:06.851Z,98.30
2018-10-03T22:05:09.500Z,98.30
2018-10-03T22:07:11.813Z,98.30
2018-10-03T22:09:13.970Z,98.30
2018-10-03T22:11:16.172Z,98.30
2018-10-03T22:13:18.371Z,98.30
2018-10-03T22:15:21.295Z,98.30
2018-10-03T22:17:24.406Z,98.30
2018-10-03T22:19:26.654Z,98.30
2018-10-03T22:21:28.867Z,98.30
2018-10-03T22:23:31.024Z,98.30
2018-10-03T22:25:33.225Z,98.30
2018-10-03T22:27:35.363Z,98.30
2018-10-03T22:29:38.008Z,98.30
2018-10-03T22:31:40.311Z,98.30
2018-10-03T22:33:42.494Z,98.30
2018-10-03T22:35:44.666Z,98.30
2018-10-03T22:37:46.875Z,98.30
2018-10-03T22:39:49.039Z,98.30
2018-10-03T22:41:51.195Z,98.30
2018-10-03T22:43:53.390Z,98.30
2018-10-03T22:45:55.594Z,98.30
2018-10-03T22:47:57.799Z,98.30
2018-10-03T22:49:59.998Z,98.30
2018-10-03T22:52:02.346Z,98.30
2018-10-03T22:54:04.535Z,98.30
2018-10-03T22:56:06.915Z,98.30
2018-10-03T22:58:09.113Z,98.30
2018-10-03T23:00:11.285Z,98.30
2018-10-03T23:02:13.518Z,98.30
2018-10-03T23:04:15.714Z,98.30
2018-10-03T23:06:17.911Z,98.30
2018-10-03T23:08:20.202Z,98.30
2018-10-03T23:10:22.559Z,98.30
2018-10-03T23:12:24.804Z,98.30
2018-10-03T23:14:27.020Z,98.30
2018-10-03T23:16:29.239Z,98.30
2018-10-03T23:18:31.535Z,98.30
2018-10-03T23:20:33.742Z,98.30
2018-10-03T23:22:35.911Z,98.30
2018-10-03T23:24:38.039Z,98.30
2018-10-03T23:26:40.394Z,98.30
2018-10-03T23:28:42.502Z,98.30
2018-10-03T23:30:44.637Z,98.30
2018-10-03T23:32:53.330Z,98.30
2018-10-03T23:34:55.486Z,98.30
2018-10-03T23:36:57.605Z,98.30
2018-10-03T23:38:59.865Z,98.30
2018-10-03T23:41:02.177Z,98.30
2018-10-03T23:43:04.626Z,98.30
2018-10-03T23:45:06.847Z,98.30
2018-10-03T23:47:09.005Z,98.30
2018-10-03T23:49:11.219Z,98.30
2018-10-03T23:51:13.371Z,98.30
2018-10-03T23:53:15.583Z,98.30
2018-10-03T23:55:17.714Z,98.30
2018-10-03T23:57:20.092Z,98.30
2018-10-03T23:59:22.268Z,98.30
